Time;durP1;ratioP1;P1;durP2;ratioP2;P2;SDS_P1;SDS_P2;PMS_P1;PMS_P2;Temp;Humidity;BMP_temperature;BMP_pressure;BME280_temperature;BME280_humidity;BME280_pressure;Samples;Min_cycle;Max_cycle;Signal;HPM_P1;HPM_P2
2021/05/25 00:00:02;;;;;;;4.38;1.70;;;;;;;12.22;100.00;99969.78;5224217;28;20029;-80
2021/05/25 00:02:32;;;;;;;3.45;1.67;;;;;;;12.05;100.00;99965.44;5218423;28;20050;-79
2021/05/25 00:05:04;;;;;;;3.88;1.60;;;;;;;11.87;100.00;99968.13;5222712;28;20025;-80
2021/05/25 00:07:34;;;;;;;3.58;1.98;;;;;;;11.89;100.00;99961.88;5224479;28;20033;-79
2021/05/25 00:10:06;;;;;;;3.97;1.75;;;;;;;11.94;100.00;99967.72;5223813;28;20036;-80
2021/05/25 00:12:37;;;;;;;3.38;1.50;;;;;;;11.87;100.00;99960.25;5223040;28;20025;-78
2021/05/25 00:15:10;;;;;;;1.98;1.35;;;;;;;11.63;100.00;99951.88;5223981;28;20454;-78
2021/05/25 00:17:41;;;;;;;2.65;1.50;;;;;;;11.66;100.00;99946.50;5198056;28;20082;-79
2021/05/25 00:20:13;;;;;;;3.80;1.45;;;;;;;11.51;100.00;99956.84;5218682;28;20025;-78
2021/05/25 00:22:43;;;;;;;2.55;1.35;;;;;;;11.65;100.00;99947.41;5219954;28;20498;-79
2021/05/25 00:25:15;;;;;;;2.72;1.40;;;;;;;11.65;100.00;99952.63;5221067;28;20127;-78
2021/05/25 00:27:47;;;;;;;2.30;1.35;;;;;;;11.59;100.00;99970.44;5224081;28;20029;-78
2021/05/25 00:30:19;;;;;;;3.00;1.58;;;;;;;11.71;100.00;99975.91;5222256;28;20083;-79
2021/05/25 00:32:50;;;;;;;2.75;1.30;;;;;;;11.52;100.00;99993.41;5218633;28;20024;-80
2021/05/25 00:35:20;;;;;;;3.80;1.42;;;;;;;11.47;100.00;99997.16;5221709;28;20035;-78
2021/05/25 00:37:50;;;;;;;3.45;1.30;;;;;;;11.18;100.00;100022.09;5205421;28;20050;-78
2021/05/25 00:40:21;;;;;;;6.43;1.23;;;;;;;11.28;100.00;100020.72;5223069;28;20028;-79
2021/05/25 00:42:51;;;;;;;2.55;1.00;;;;;;;11.22;100.00;100013.19;5217681;28;20029;-78
2021/05/25 00:45:22;;;;;;;2.10;1.20;;;;;;;11.10;100.00;100008.50;5223336;28;20512;-78
2021/05/25 00:47:52;;;;;;;3.50;1.20;;;;;;;11.17;100.00;99986.41;5201930;28;20029;-81
2021/05/25 00:50:27;;;;;;;1.98;1.08;;;;;;;11.28;100.00;99976.25;5205357;28;20021;-80
2021/05/25 00:53:01;;;;;;;1.83;0.90;;;;;;;11.42;100.00;99976.44;5200825;28;20029;-78
2021/05/25 00:55:35;;;;;;;3.00;0.80;;;;;;;11.34;100.00;99989.06;5204572;28;20033;-79
2021/05/25 00:58:08;;;;;;;1.83;0.90;;;;;;;11.15;100.00;99993.47;5200829;28;20055;-80
2021/05/25 01:00:44;;;;;;;5.25;1.00;;;;;;;11.03;100.00;100001.88;5206289;28;20018;-80
2021/05/25 01:03:16;;;;;;;1.80;0.95;;;;;;;10.84;100.00;100012.41;5205448;28;20026;-79
2021/05/25 01:05:48;;;;;;;4.25;1.17;;;;;;;10.89;100.00;100002.59;5208095;28;20484;-79
2021/05/25 01:08:19;;;;;;;3.13;1.02;;;;;;;10.80;100.00;100003.00;5198917;28;20022;-79
2021/05/25 01:11:11;;;;;;;2.88;1.25;;;;;;;10.77;100.00;100008.38;5207542;28;20627;-81
2021/05/25 01:16:14;;;;;;;2.45;1.10;;;;;;;10.73;100.00;100012.03;5204013;28;20033;-78
2021/05/25 01:18:45;;;;;;;2.45;1.20;;;;;;;10.65;100.00;100006.31;5207849;28;20079;-79
2021/05/25 01:21:16;;;;;;;1.90;0.95;;;;;;;10.65;100.00;100007.16;5206644;28;20033;-80
2021/05/25 01:23:47;;;;;;;2.10;0.90;;;;;;;10.62;100.00;99998.59;5200961;28;20037;-80
2021/05/25 01:26:18;;;;;;;3.72;0.90;;;;;;;10.85;100.00;99993.19;5215328;28;20030;-79
2021/05/25 01:28:49;;;;;;;1.35;0.80;;;;;;;10.57;100.00;99982.28;5212936;28;20068;-78
2021/05/25 01:31:19;;;;;;;5.15;0.95;;;;;;;10.60;100.00;99964.72;5214198;28;20056;-80
2021/05/25 01:33:49;;;;;;;2.55;1.23;;;;;;;10.56;100.00;99964.91;5214695;28;20102;-81
2021/05/25 01:36:20;;;;;;;2.72;0.95;;;;;;;10.62;100.00;99951.56;5215445;28;20029;-79
2021/05/25 01:38:50;;;;;;;4.75;1.10;;;;;;;10.47;100.00;99957.47;5214109;28;20385;-79
2021/05/25 01:41:20;;;;;;;3.35;1.13;;;;;;;10.71;100.00;99959.00;5215284;28;20082;-79
2021/05/25 01:43:51;;;;;;;2.75;0.93;;;;;;;10.66;100.00;99969.66;5212148;28;20028;-79
2021/05/25 01:46:21;;;;;;;4.18;1.27;;;;;;;10.80;100.00;99964.66;5201886;28;20029;-79
2021/05/25 01:48:52;;;;;;;2.47;1.10;;;;;;;10.68;100.00;99972.22;5210580;28;20478;-79
2021/05/25 01:51:22;;;;;;;2.63;1.10;;;;;;;10.89;100.00;99979.91;5209264;28;20016;-80
2021/05/25 01:53:53;;;;;;;2.88;1.10;;;;;;;10.80;100.00;99996.00;5210270;28;20071;-81
2021/05/25 01:56:23;;;;;;;1.80;1.00;;;;;;;10.82;100.00;99991.56;5214107;28;20032;-80
2021/05/25 01:58:54;;;;;;;2.40;0.90;;;;;;;10.97;100.00;99993.47;5215283;28;20676;-80
2021/05/25 02:01:25;;;;;;;5.63;0.90;;;;;;;11.21;100.00;99990.56;5213660;28;20108;-79
2021/05/25 02:03:55;;;;;;;2.35;1.00;;;;;;;11.26;100.00;99987.72;5214726;28;20478;-80
2021/05/25 02:06:25;;;;;;;4.57;1.08;;;;;;;11.30;100.00;99990.09;5215498;28;20025;-80
2021/05/25 02:08:57;;;;;;;2.55;1.00;;;;;;;11.27;100.00;99990.25;5224915;28;20368;-81
2021/05/25 02:11:27;;;;;;;2.45;0.95;;;;;;;11.39;100.00;99997.53;5209606;28;20032;-80
2021/05/25 02:13:58;;;;;;;1.88;1.00;;;;;;;11.38;100.00;100001.06;5200699;28;20030;-79
2021/05/25 02:16:28;;;;;;;2.55;1.00;;;;;;;11.55;100.00;99995.00;5210206;28;20050;-79
2021/05/25 02:18:58;;;;;;;2.83;1.00;;;;;;;11.38;100.00;99998.44;5222238;28;20047;-80
2021/05/25 02:21:29;;;;;;;3.25;1.08;;;;;;;11.40;100.00;99991.38;5225184;28;20086;-79
2021/05/25 02:24:00;;;;;;;2.33;0.98;;;;;;;11.55;100.00;100001.09;5212701;28;20060;-79
2021/05/25 02:26:30;;;;;;;2.42;0.88;;;;;;;11.43;100.00;99991.22;5222448;28;20536;-81
2021/05/25 02:29:00;;;;;;;3.55;1.00;;;;;;;11.34;100.00;99986.44;5225449;28;20096;-80
2021/05/25 02:31:30;;;;;;;2.42;1.00;;;;;;;11.42;100.00;99997.38;5219894;28;20021;-80
2021/05/25 02:34:01;;;;;;;1.90;0.77;;;;;;;11.49;100.00;99995.31;5221862;28;20801;-79
2021/05/25 02:36:31;;;;;;;2.72;0.80;;;;;;;11.35;100.00;99998.59;5225269;28;20634;-78
2021/05/25 02:39:04;;;;;;;3.67;1.00;;;;;;;11.45;100.00;99999.84;5207046;28;20029;-78
2021/05/25 02:41:35;;;;;;;2.70;0.90;;;;;;;11.37;100.00;99993.28;5224715;28;20108;-79
2021/05/25 02:44:05;;;;;;;3.80;0.93;;;;;;;11.32;100.00;100003.13;5224455;28;20135;-78
2021/05/25 02:46:36;;;;;;;4.22;1.13;;;;;;;11.30;100.00;99995.34;5206224;28;20021;-79
2021/05/25 02:49:06;;;;;;;3.22;0.90;;;;;;;11.40;100.00;99996.59;5224338;28;20033;-77
2021/05/25 02:51:36;;;;;;;3.33;0.90;;;;;;;11.31;100.00;100011.91;5224547;28;20047;-78
2021/05/25 02:54:07;;;;;;;1.90;0.80;;;;;;;11.34;100.00;100009.13;5221861;28;20036;-78
2021/05/25 02:56:37;;;;;;;2.08;0.80;;;;;;;11.31;100.00;100012.72;5217201;28;20021;-78
2021/05/25 02:59:07;;;;;;;3.30;1.13;;;;;;;11.21;100.00;100026.31;5220115;28;20068;-79
2021/05/25 03:01:38;;;;;;;4.25;0.88;;;;;;;11.08;100.00;100026.03;5219455;28;20024;-78
2021/05/25 03:04:08;;;;;;;2.85;0.70;;;;;;;11.26;100.00;100030.41;5220929;28;20460;-79
2021/05/25 03:06:39;;;;;;;2.13;0.80;;;;;;;11.08;100.00;100036.50;5222212;28;20029;-78
2021/05/25 03:09:09;;;;;;;2.38;0.80;;;;;;;10.94;100.00;100048.53;5223669;28;20033;-78
2021/05/25 03:11:40;;;;;;;4.55;0.70;;;;;;;11.00;100.00;100042.16;5219781;28;20116;-78
2021/05/25 03:14:11;;;;;;;2.38;0.80;;;;;;;10.87;100.00;100038.41;5220803;28;20102;-78
2021/05/25 03:16:41;;;;;;;2.08;0.70;;;;;;;11.03;100.00;100033.25;5224520;28;20621;-78
2021/05/25 03:19:11;;;;;;;2.28;0.82;;;;;;;11.07;100.00;100024.34;5223708;28;20380;-78
2021/05/25 03:21:42;;;;;;;1.85;0.70;;;;;;;10.88;100.00;100032.25;5206091;28;20075;-78
2021/05/25 03:24:12;;;;;;;1.77;0.70;;;;;;;10.83;100.00;100042.09;5221404;28;20021;-78
2021/05/25 03:26:42;;;;;;;2.17;0.70;;;;;;;10.77;100.00;100044.97;5221205;28;20048;-78
2021/05/25 03:29:13;;;;;;;2.95;0.95;;;;;;;10.75;100.00;100044.19;5224478;28;20029;-78
2021/05/25 03:31:44;;;;;;;3.97;0.90;;;;;;;10.76;100.00;100054.56;5220117;28;20482;-79
2021/05/25 03:34:14;;;;;;;2.50;0.90;;;;;;;10.70;100.00;100046.16;5220943;28;20032;-78
2021/05/25 03:36:44;;;;;;;2.08;0.65;;;;;;;10.75;100.00;100057.25;5224008;28;20024;-79
2021/05/25 03:39:14;;;;;;;2.53;0.80;;;;;;;10.82;100.00;100062.13;5223846;28;20543;-78
2021/05/25 03:41:45;;;;;;;2.42;0.80;;;;;;;10.57;100.00;100058.06;5223225;28;20040;-78
2021/05/25 03:44:15;;;;;;;3.92;0.90;;;;;;;10.69;100.00;100057.53;5205216;28;20116;-78
2021/05/25 03:46:46;;;;;;;3.75;0.90;;;;;;;10.36;100.00;100061.59;5223355;28;20025;-78
2021/05/25 03:49:16;;;;;;;4.18;0.68;;;;;;;10.31;100.00;100072.25;5217116;28;20025;-78
2021/05/25 03:51:46;;;;;;;4.75;0.77;;;;;;;10.27;100.00;100067.22;5212433;28;20024;-78
2021/05/25 03:54:28;;;;;;;3.03;0.68;;;;;;;10.34;100.00;100077.31;5211863;28;20036;-79
2021/05/25 03:57:07;;;;;;;3.40;0.75;;;;;;;10.26;100.00;100073.34;5217376;28;20104;-78
2021/05/25 03:59:37;;;;;;;0.90;0.60;;;;;;;10.52;100.00;100079.16;5214033;28;20028;-78
2021/05/25 04:02:07;;;;;;;1.92;0.80;;;;;;;10.40;100.00;100081.44;5217433;28;20037;-78
2021/05/25 04:04:37;;;;;;;2.03;0.80;;;;;;;10.65;100.00;100082.94;5206448;28;20021;-79
2021/05/25 04:07:08;;;;;;;4.22;0.80;;;;;;;10.61;99.64;100084.00;5206631;28;20071;-78
2021/05/25 04:09:38;;;;;;;3.65;0.82;;;;;;;10.68;100.00;100087.19;5207113;28;20028;-79
2021/05/25 04:12:09;;;;;;;1.95;0.65;;;;;;;10.76;100.00;100085.06;5207152;28;20233;-80
2021/05/25 04:14:39;;;;;;;3.00;0.90;;;;;;;10.81;100.00;100088.31;5207006;28;20116;-80
2021/05/25 04:17:10;;;;;;;2.90;0.70;;;;;;;10.79;99.77;100085.81;5220870;28;20025;-79
2021/05/25 04:19:41;;;;;;;2.28;0.73;;;;;;;10.96;99.79;100090.25;5223240;28;20398;-79
2021/05/25 04:22:11;;;;;;;1.50;0.70;;;;;;;11.05;98.51;100082.84;5223152;28;20033;-79
2021/05/25 04:24:41;;;;;;;1.67;0.60;;;;;;;11.05;96.91;100075.88;5220630;28;20025;-80
2021/05/25 04:27:11;;;;;;;2.70;0.65;;;;;;;11.11;97.18;100077.38;5219714;28;20037;-79
2021/05/25 04:29:42;;;;;;;3.50;0.70;;;;;;;10.94;100.00;100076.41;5223493;28;20052;-79
2021/05/25 04:32:12;;;;;;;2.67;0.73;;;;;;;11.11;99.11;100086.03;5217311;28;20433;-80
2021/05/25 04:34:42;;;;;;;2.97;0.93;;;;;;;11.10;98.76;100071.28;5218628;28;20025;-79
2021/05/25 04:37:12;;;;;;;2.97;0.70;;;;;;;11.12;99.88;100074.66;5222760;28;20037;-79
2021/05/25 04:39:43;;;;;;;3.17;0.80;;;;;;;11.35;98.21;100064.00;5222265;28;20044;-79
2021/05/25 04:42:13;;;;;;;2.92;0.80;;;;;;;11.33;97.84;100064.97;5222697;28;20092;-79
2021/05/25 04:44:43;;;;;;;1.83;0.70;;;;;;;11.18;98.08;100069.16;5223108;28;20027;-79
2021/05/25 04:47:14;;;;;;;1.65;0.70;;;;;;;11.09;98.70;100077.41;5222956;28;20056;-79
2021/05/25 04:49:44;;;;;;;3.83;0.60;;;;;;;11.15;97.76;100076.31;5223694;28;20021;-79
2021/05/25 04:52:14;;;;;;;2.38;0.70;;;;;;;11.20;97.69;100085.63;5212974;28;20041;-79
2021/05/25 04:54:45;;;;;;;3.35;0.70;;;;;;;11.32;96.36;100082.47;5210964;28;20021;-78
2021/05/25 04:57:15;;;;;;;1.15;0.55;;;;;;;11.21;97.42;100089.09;5197561;28;20514;-78
2021/05/25 04:59:45;;;;;;;4.28;0.60;;;;;;;11.38;97.44;100079.56;5216462;28;20040;-79
2021/05/25 05:02:16;;;;;;;2.38;0.70;;;;;;;12.87;90.88;100074.66;5208056;28;20025;-79
2021/05/25 05:04:46;;;;;;;1.35;0.50;;;;;;;15.42;81.27;100071.88;5209387;28;20075;-81
2021/05/25 05:07:17;;;;;;;0.93;0.60;;;;;;;17.83;72.47;100068.34;5219647;28;20033;-80
2021/05/25 05:09:47;;;;;;;2.25;0.50;;;;;;;20.26;63.39;100053.31;5211982;28;20075;-79
2021/05/25 05:12:17;;;;;;;4.68;0.60;;;;;;;20.78;60.90;100058.56;5212213;28;20029;-80
2021/05/25 05:14:48;;;;;;;2.08;0.70;;;;;;;20.71;61.65;100060.91;5206031;28;20032;-81
2021/05/25 05:17:18;;;;;;;1.40;0.40;;;;;;;21.91;58.43;100062.69;5204821;28;20048;-80
2021/05/25 05:19:48;;;;;;;1.88;0.60;;;;;;;21.61;59.96;100063.56;5222064;28;20025;-81
2021/05/25 05:22:19;;;;;;;2.05;0.50;;;;;;;22.42;56.86;100066.78;5216942;28;20475;-80
2021/05/25 05:24:49;;;;;;;4.78;0.35;;;;;;;22.37;56.27;100079.66;5218498;28;20028;-80
2021/05/25 05:27:19;;;;;;;3.10;0.50;;;;;;;22.96;55.91;100072.28;5219149;28;20032;-80
2021/05/25 05:29:50;;;;;;;2.92;0.50;;;;;;;20.79;60.05;100070.88;5222479;28;20035;-80
2021/05/25 05:32:20;;;;;;;2.67;0.53;;;;;;;17.76;67.11;100097.00;5217443;28;20994;-80
2021/05/25 05:34:50;;;;;;;2.05;0.55;;;;;;;16.64;70.96;100101.53;5223283;28;20346;-80
2021/05/25 05:37:21;;;;;;;1.60;0.50;;;;;;;14.50;77.73;100110.06;5224964;28;20055;-80
2021/05/25 05:39:51;;;;;;;1.70;0.55;;;;;;;14.94;78.19;100116.97;5207062;28;20031;-80
2021/05/25 05:42:21;;;;;;;1.95;0.50;;;;;;;15.21;75.02;100110.03;5217910;28;20051;-79
2021/05/25 05:44:52;;;;;;;2.27;0.57;;;;;;;14.68;77.00;100119.47;5222796;28;20036;-78
2021/05/25 05:47:22;;;;;;;1.40;0.60;;;;;;;14.40;78.90;100116.81;5224087;28;20301;-79
2021/05/25 05:49:53;;;;;;;0.88;0.38;;;;;;;13.95;79.34;100114.16;5224428;28;20056;-79
2021/05/25 05:52:23;;;;;;;4.28;0.68;;;;;;;13.82;80.38;100123.63;5224616;28;20040;-79
2021/05/25 05:54:53;;;;;;;2.95;0.60;;;;;;;14.17;79.09;100122.53;5224976;28;20048;-79
2021/05/25 05:57:23;;;;;;;3.85;0.70;;;;;;;14.95;76.23;100127.44;5224285;28;20059;-79
2021/05/25 05:59:54;;;;;;;2.22;0.47;;;;;;;14.69;77.17;100132.56;5224524;28;20033;-79
2021/05/25 06:02:24;;;;;;;2.25;0.57;;;;;;;14.40;79.37;100135.22;5217827;28;20025;-79
2021/05/25 06:04:55;;;;;;;1.25;0.60;;;;;;;13.72;82.27;100127.72;5222299;28;20052;-78
2021/05/25 06:07:25;;;;;;;1.67;0.50;;;;;;;13.93;82.69;100134.41;5224005;28;20108;-79
2021/05/25 06:09:57;;;;;;;3.70;0.60;;;;;;;13.23;85.13;100126.06;5224472;28;20286;-80
2021/05/25 06:12:28;;;;;;;2.10;0.50;;;;;;;13.01;86.51;100133.34;5223098;28;20028;-80
2021/05/25 06:14:58;;;;;;;1.73;0.70;;;;;;;13.53;84.95;100137.53;5226921;28;20036;-79
2021/05/25 06:17:28;;;;;;;3.75;0.50;;;;;;;13.33;84.66;100141.25;5227762;28;20276;-78
2021/05/25 06:19:59;;;;;;;2.35;0.65;;;;;;;13.83;83.18;100138.47;5228278;28;20386;-79
2021/05/25 06:22:29;;;;;;;5.38;0.60;;;;;;;14.92;77.62;100135.53;5228106;28;20029;-79
2021/05/25 06:24:59;;;;;;;1.58;0.40;;;;;;;15.83;73.84;100133.31;5228915;28;20055;-80
2021/05/25 06:27:30;;;;;;;2.17;0.45;;;;;;;16.51;71.22;100122.63;5229799;28;20104;-81
2021/05/25 06:30:00;;;;;;;4.07;0.70;;;;;;;16.62;69.21;100125.41;5212011;28;20037;-81
2021/05/25 06:32:30;;;;;;;1.37;0.40;;;;;;;16.97;71.00;100131.78;5205862;28;20303;-81
2021/05/25 06:35:01;;;;;;;1.73;0.65;;;;;;;17.43;69.92;100136.41;5224826;28;20275;-81
2021/05/25 06:37:31;;;;;;;1.80;0.70;;;;;;;17.39;67.48;100131.44;5212424;28;20033;-81
2021/05/25 06:40:08;;;;;;;1.95;0.68;;;;;;;17.25;68.10;100126.25;5229923;28;20060;-81
2021/05/25 06:42:39;;;;;;;1.60;0.63;;;;;;;17.72;66.59;100119.34;5206709;28;20032;-80
2021/05/25 06:45:10;;;;;;;2.33;0.60;;;;;;;17.13;66.30;100124.47;5227225;28;20032;-82
2021/05/25 06:47:40;;;;;;;3.25;0.60;;;;;;;16.95;67.35;100139.78;5228505;28;20080;-81
2021/05/25 06:50:11;;;;;;;2.63;0.60;;;;;;;17.72;66.10;100129.06;5229345;28;20117;-81
2021/05/25 06:52:42;;;;;;;2.88;0.60;;;;;;;17.03;66.03;100141.91;5229293;28;20478;-80
2021/05/25 06:55:13;;;;;;;4.90;0.52;;;;;;;16.70;67.97;100138.91;5222103;28;20116;-80
2021/05/25 06:57:43;;;;;;;1.58;0.50;;;;;;;16.47;68.11;100147.53;5227269;28;20093;-80
2021/05/25 07:00:15;;;;;;;1.58;0.50;;;;;;;15.56;70.29;100149.06;5209566;28;20033;-79
2021/05/25 07:02:45;;;;;;;2.42;0.73;;;;;;;16.05;67.50;100150.28;5205129;28;20035;-79
2021/05/25 07:05:15;;;;;;;2.17;0.52;;;;;;;16.21;69.63;100152.78;5227577;28;20028;-80
2021/05/25 07:07:46;;;;;;;0.98;0.40;;;;;;;16.44;70.10;100147.75;5228018;28;20456;-80
2021/05/25 07:10:17;;;;;;;1.88;0.40;;;;;;;15.84;69.34;100149.03;5228070;28;20029;-80
2021/05/25 07:12:47;;;;;;;2.63;0.40;;;;;;;15.90;70.76;100153.91;5223616;28;20497;-79
2021/05/25 07:15:18;;;;;;;1.17;0.47;;;;;;;16.13;70.71;100157.69;5208446;28;20029;-79
2021/05/25 07:18:07;;;;;;;1.13;0.50;;;;;;;16.78;69.67;100160.38;5208708;28;20602;-79
2021/05/25 07:20:37;;;;;;;2.20;0.40;;;;;;;16.61;68.19;100159.78;5219317;28;20025;-78
2021/05/25 07:23:13;;;;;;;2.15;0.50;;;;;;;16.06;70.37;100165.16;5223842;28;20631;-79
2021/05/25 07:25:44;;;;;;;2.00;0.60;;;;;;;16.71;70.95;100167.00;5214813;28;20026;-79
2021/05/25 07:28:14;;;;;;;1.77;0.40;;;;;;;17.38;69.05;100154.41;5217920;28;20026;-80
2021/05/25 07:30:47;;;;;;;1.95;0.50;;;;;;;16.72;68.65;100158.13;5217273;28;20053;-80
2021/05/25 07:33:17;;;;;;;1.50;0.43;;;;;;;17.38;67.89;100153.53;5223257;28;20098;-80
2021/05/25 07:35:48;;;;;;;2.25;0.52;;;;;;;18.83;64.59;100150.66;5229000;28;20486;-80
2021/05/25 07:38:19;;;;;;;2.07;0.37;;;;;;;18.55;62.82;100158.16;5204303;28;20036;-78
2021/05/25 07:40:49;;;;;;;3.67;0.60;;;;;;;17.73;64.43;100143.97;5214866;28;20315;-79
2021/05/25 07:43:20;;;;;;;3.05;0.70;;;;;;;17.47;64.54;100150.25;5194646;28;20056;-80
2021/05/25 07:45:50;;;;;;;2.00;0.50;;;;;;;16.54;68.54;100148.78;5227788;28;20045;-79
2021/05/25 07:48:21;;;;;;;2.80;0.50;;;;;;;15.71;68.33;100155.19;5228108;28;20032;-80
2021/05/25 07:50:52;;;;;;;4.00;0.82;;;;;;;15.34;69.96;100161.88;5225848;28;20017;-80
2021/05/25 07:53:23;;;;;;;2.78;0.70;;;;;;;14.70;72.23;100157.06;5224470;28;20036;-79
2021/05/25 07:55:54;;;;;;;1.77;0.55;;;;;;;14.63;73.12;100166.25;5225153;28;20391;-79
2021/05/25 07:58:24;;;;;;;2.67;0.60;;;;;;;14.07;76.79;100168.66;5251095;22;20064;-78
2021/05/25 08:00:55;;;;;;;3.45;0.60;;;;;;;13.75;82.07;100172.19;5251065;28;20081;-78
2021/05/25 08:03:25;;;;;;;1.58;0.50;;;;;;;14.07;81.69;100151.06;5247150;28;20032;-80
2021/05/25 08:05:58;;;;;;;4.07;0.63;;;;;;;13.83;82.47;100162.97;5252959;28;20024;-78
2021/05/25 08:08:30;;;;;;;2.38;0.50;;;;;;;15.16;81.45;100165.59;5245141;28;20496;-78
2021/05/25 08:11:00;;;;;;;1.58;0.50;;;;;;;16.34;78.44;100154.53;5235346;28;20028;-77
2021/05/25 08:13:31;;;;;;;2.03;0.40;;;;;;;16.33;77.07;100151.97;5234846;28;20036;-77
2021/05/25 08:16:01;;;;;;;1.53;0.50;;;;;;;16.80;75.07;100150.56;5248136;28;20024;-78
2021/05/25 08:18:51;;;;;;;1.45;0.60;;;;;;;16.66;72.83;100140.06;5248765;28;20760;-77
2021/05/25 08:21:21;;;;;;;2.72;0.55;;;;;;;16.59;72.32;100141.41;5248294;28;20034;-78
2021/05/25 08:23:52;;;;;;;2.10;0.50;;;;;;;16.58;72.16;100150.28;5226821;28;20025;-78
2021/05/25 08:26:26;;;;;;;0.98;0.30;;;;;;;15.20;73.75;100159.22;5244987;28;20048;-79
2021/05/25 08:28:56;;;;;;;2.25;0.40;;;;;;;15.22;74.24;100167.03;5243851;28;20047;-79
2021/05/25 08:31:26;;;;;;;1.90;0.50;;;;;;;14.62;73.40;100169.84;5239031;28;20488;-78
2021/05/25 08:33:57;;;;;;;2.03;0.50;;;;;;;14.37;74.48;100159.03;5241173;28;20036;-78
2021/05/25 08:36:30;;;;;;;2.78;0.45;;;;;;;14.38;75.23;100165.97;5244272;28;20035;-78
2021/05/25 08:39:01;;;;;;;3.65;0.50;;;;;;;14.22;76.18;100165.19;5236089;28;20586;-78
2021/05/25 08:41:33;;;;;;;1.35;0.40;;;;;;;14.34;75.47;100162.69;5238096;28;20034;-79
2021/05/25 08:44:05;;;;;;;2.85;0.70;;;;;;;14.74;72.20;100164.69;5240620;28;20482;-79
2021/05/25 08:46:37;;;;;;;1.70;0.52;;;;;;;15.70;70.46;100156.13;5244323;28;20490;-78
2021/05/25 08:49:11;;;;;;;4.47;0.60;;;;;;;15.71;69.74;100156.00;5226014;28;20524;-80
2021/05/25 08:51:41;;;;;;;6.10;0.73;;;;;;;16.91;66.88;100148.00;5247251;28;20060;-78
2021/05/25 08:54:12;;;;;;;1.63;0.50;;;;;;;16.87;65.12;100143.88;5242279;28;20029;-79
2021/05/25 08:56:42;;;;;;;4.70;0.60;;;;;;;16.29;67.39;100156.63;5243323;28;20024;-78
2021/05/25 08:59:13;;;;;;;2.93;0.50;;;;;;;16.53;69.02;100147.09;5247197;28;20050;-78
2021/05/25 09:01:43;;;;;;;1.77;0.40;;;;;;;17.55;67.34;100147.91;5236384;28;20267;-77
2021/05/25 09:04:15;;;;;;;2.17;0.40;;;;;;;17.72;66.65;100147.56;5239509;28;20104;-78
2021/05/25 09:06:49;;;;;;;0.63;0.30;;;;;;;17.88;65.74;100153.44;5242197;28;20032;-78
2021/05/25 09:09:20;;;;;;;0.40;0.30;;;;;;;17.41;65.71;100159.47;5242098;28;20043;-78
2021/05/25 09:12:11;;;;;;;1.67;0.40;;;;;;;19.29;62.44;100146.22;5238401;28;20564;-77
2021/05/25 09:14:48;;;;;;;1.98;0.28;;;;;;;20.88;58.78;100137.41;5239742;28;20040;-78
2021/05/25 09:17:24;;;;;;;2.58;0.35;;;;;;;19.06;61.94;100147.94;5241290;28;20554;-77
2021/05/25 09:19:57;;;;;;;1.13;0.30;;;;;;;17.88;62.44;100154.31;5241642;28;20036;-78
2021/05/25 09:22:27;;;;;;;2.72;0.40;;;;;;;16.94;63.74;100158.38;5242142;28;20032;-77
2021/05/25 09:25:04;;;;;;;1.38;0.43;;;;;;;16.12;66.17;100164.78;5243545;28;20030;-77
2021/05/25 09:27:41;;;;;;;2.33;0.30;;;;;;;16.26;68.08;100162.09;5236586;28;20021;-77
2021/05/25 09:30:14;;;;;;;2.35;0.40;;;;;;;16.37;68.49;100158.78;5243491;28;20028;-78
2021/05/25 09:32:47;;;;;;;1.60;0.45;;;;;;;16.91;69.13;100150.66;5235823;28;20024;-78
2021/05/25 09:35:21;;;;;;;1.77;0.50;;;;;;;16.97;67.81;100155.53;5241448;28;20024;-78
2021/05/25 09:37:54;;;;;;;1.35;0.30;;;;;;;15.63;68.74;100155.66;5243807;28;20024;-76
2021/05/25 09:40:27;;;;;;;4.22;0.40;;;;;;;15.79;68.34;100158.16;5242869;28;20021;-78
2021/05/25 09:43:27;;;;;;;1.23;0.40;;;;;;;16.00;69.02;100162.06;5237940;28;20028;-78
2021/05/25 09:46:08;;;;;;;1.48;0.30;;;;;;;15.36;71.84;100159.16;5247460;28;20064;-79
2021/05/25 09:48:41;;;;;;;2.70;0.35;;;;;;;15.02;75.39;100170.84;5241653;28;20477;-77
2021/05/25 09:51:21;;;;;;;0.57;0.25;;;;;;;15.11;77.15;100183.47;5247260;28;20055;-78
2021/05/25 09:53:52;;;;;;;3.90;0.43;;;;;;;15.08;75.62;100191.56;5247332;28;20028;-77
2021/05/25 09:56:30;;;;;;;0.68;0.20;;;;;;;15.26;74.43;100185.19;5247469;28;20051;-77
2021/05/25 09:59:00;;;;;;;0.57;0.20;;;;;;;15.23;73.96;100184.50;5239431;28;20036;-78
2021/05/25 10:01:38;;;;;;;0.65;0.20;;;;;;;15.72;74.96;100184.06;5221041;28;20447;-78
2021/05/25 10:04:14;;;;;;;1.52;0.28;;;;;;;15.52;72.91;100179.19;5243765;28;20032;-78
2021/05/25 10:06:47;;;;;;;2.88;0.22;;;;;;;15.63;72.42;100184.63;5247702;28;20025;-77
2021/05/25 10:09:20;;;;;;;1.33;0.30;;;;;;;15.39;74.78;100186.13;5247263;28;20024;-78
2021/05/25 10:11:51;;;;;;;1.80;0.22;;;;;;;15.36;75.02;100183.69;5243107;28;20029;-78
2021/05/25 10:14:22;;;;;;;0.47;0.25;;;;;;;15.93;74.29;100182.72;5244352;28;20331;-78
2021/05/25 10:16:53;;;;;;;2.08;0.30;;;;;;;16.40;71.50;100177.03;5247182;28;20063;-78
2021/05/25 10:19:27;;;;;;;2.95;0.43;;;;;;;16.45;69.91;100180.22;5247123;28;20482;-78
2021/05/25 10:21:58;;;;;;;1.00;0.30;;;;;;;15.64;71.89;100175.78;5246822;28;20096;-78
2021/05/25 10:24:28;;;;;;;2.20;0.38;;;;;;;14.61;80.20;100194.44;5226352;28;20111;-78
2021/05/25 10:26:58;;;;;;;2.03;0.52;;;;;;;14.65;83.70;100201.22;5246231;28;20033;-80
2021/05/25 10:29:29;;;;;;;2.25;0.20;;;;;;;14.05;81.99;100194.16;5249428;28;20032;-78
2021/05/25 10:32:04;;;;;;;0.25;0.20;;;;;;;14.03;82.48;100191.59;5229521;28;20036;-77
2021/05/25 10:34:35;;;;;;;0.55;0.10;;;;;;;13.80;83.25;100199.91;5237019;28;20025;-77
2021/05/25 10:37:13;;;;;;;0.85;0.10;;;;;;;14.28;83.13;100191.94;5251033;28;20051;-77
2021/05/25 10:39:45;;;;;;;0.75;0.20;;;;;;;15.10;85.23;100194.94;5250795;28;20032;-77
2021/05/25 10:42:18;;;;;;;0.10;0.10;;;;;;;15.22;81.93;100188.91;5246740;28;20033;-77
2021/05/25 10:44:55;;;;;;;0.50;0.20;;;;;;;14.51;78.71;100193.25;5249487;28;20036;-78
2021/05/25 10:47:37;;;;;;;0.47;0.10;;;;;;;14.62;78.41;100190.88;5250933;28;20024;-77
2021/05/25 10:50:14;;;;;;;1.95;0.40;;;;;;;14.20;78.87;100191.53;5223800;28;20523;-79
2021/05/25 10:52:54;;;;;;;1.60;0.57;;;;;;;14.23;80.36;100195.78;5219570;28;20603;-77
2021/05/25 10:55:28;;;;;;;2.63;0.50;;;;;;;13.92;78.38;100187.88;5238477;28;20168;-77
2021/05/25 10:58:00;;;;;;;0.88;0.30;;;;;;;14.20;78.04;100182.78;5231141;28;20033;-78
2021/05/25 11:00:41;;;;;;;2.05;0.75;;;;;;;14.20;78.30;100188.06;5220692;28;20032;-78
2021/05/25 11:03:11;;;;;;;2.13;0.60;;;;;;;14.44;78.79;100173.53;5226083;28;20044;-79
2021/05/25 11:05:47;;;;;;;1.77;0.57;;;;;;;14.62;80.63;100182.97;5214857;28;20433;-79
2021/05/25 11:08:17;;;;;;;3.30;0.50;;;;;;;15.22;79.17;100181.03;5239063;28;20412;-78
2021/05/25 11:10:53;;;;;;;1.70;0.47;;;;;;;15.92;75.98;100170.50;5244294;28;20491;-79
2021/05/25 11:13:28;;;;;;;0.80;0.20;;;;;;;16.58;77.79;100162.63;5230871;28;20029;-78
2021/05/25 11:16:14;;;;;;;0.82;0.30;;;;;;;16.52;72.98;100155.16;5247026;28;20017;-78
2021/05/25 11:19:05;;;;;;;;;;;;;;;16.33;74.22;100149.34;5246997;28;20119;-79
2021/05/25 11:24:34;;;;;;;1.75;0.40;;;;;;;15.79;71.92;100169.56;5250220;28;20039;-78
2021/05/25 11:27:14;;;;;;;1.42;0.40;;;;;;;15.46;74.49;100183.97;5243454;28;20041;-78
2021/05/25 11:29:52;;;;;;;2.67;0.90;;;;;;;14.92;76.50;100221.50;5249929;28;20378;-79
2021/05/25 11:32:36;;;;;;;4.57;0.82;;;;;;;13.34;82.34;100268.91;5233814;28;20037;-78
2021/05/25 11:35:09;;;;;;;6.10;0.60;;;;;;;12.10;81.31;100280.34;5240009;28;20052;-78
2021/05/25 11:37:42;;;;;;;2.40;0.38;;;;;;;11.01;86.85;100294.88;5237508;28;20157;-78
2021/05/25 11:40:16;;;;;;;6.22;0.90;;;;;;;10.50;90.42;100291.78;5244338;28;20025;-78
2021/05/25 11:42:48;;;;;;;2.42;0.63;;;;;;;10.15;92.27;100294.91;5247013;28;20118;-78
2021/05/25 11:45:23;;;;;;;2.75;0.40;;;;;;;10.34;93.17;100293.28;5233107;28;20082;-78
2021/05/25 11:48:03;;;;;;;3.60;0.50;;;;;;;9.79;95.35;100291.88;5246582;28;20016;-78
2021/05/25 11:50:40;;;;;;;3.90;0.50;;;;;;;9.77;98.62;100296.31;5248237;28;20052;-79